Time;durP1;ratioP1;P1;durP2;ratioP2;P2;SDS_P1;SDS_P2;PMS_P1;PMS_P2;Temp;Humidity;BMP_temperature;BMP_pressure;BME280_temperature;BME280_humidity;BME280_pressure;Samples;Min_cycle;Max_cycle;Signal;HPM_P1;HPM_P2
2024/04/08 00:01:58;;;;;;;0.10;0.10;;;;;;;;;;4996682;28;20073;-84
2024/04/08 00:04:24;;;;;;;0.10;0.10;;;;;;;;;;5012952;28;20052;-83
2024/04/08 00:06:50;;;;;;;0.10;0.10;;;;;;;;;;5012750;28;20069;-85
2024/04/08 00:09:16;;;;;;;0.10;0.10;;;;;;;;;;5012795;28;20084;-85
2024/04/08 00:11:42;;;;;;;0.10;0.10;;;;;;;;;;5012357;28;20038;-85
2024/04/08 00:14:08;;;;;;;0.10;0.10;;;;;;;;;;5012777;28;20080;-85
2024/04/08 00:16:34;;;;;;;0.10;0.10;;;;;;;;;;5012351;28;20045;-84
2024/04/08 00:19:00;;;;;;;0.10;0.10;;;;;;;;;;5012376;28;20077;-85
2024/04/08 00:21:26;;;;;;;0.10;0.10;;;;;;;;;;5012348;28;20128;-85
2024/04/08 00:23:52;;;;;;;0.10;0.10;;;;;;;;;;5012515;28;20115;-85
2024/04/08 00:26:18;;;;;;;0.10;0.10;;;;;;;;;;4995593;28;20046;-84
2024/04/08 00:28:44;;;;;;;0.10;0.10;;;;;;;;;;4996020;28;20079;-84
2024/04/08 00:31:10;;;;;;;0.10;0.10;;;;;;;;;;5012135;28;20432;-84
2024/04/08 00:33:37;;;;;;;0.10;0.10;;;;;;;;;;5012438;28;20045;-84
2024/04/08 00:36:06;;;;;;;0.10;0.10;;;;;;;;;;4995714;28;20046;-84
2024/04/08 00:38:33;;;;;;;0.10;0.10;;;;;;;;;;4995626;28;20057;-84
2024/04/08 00:41:02;;;;;;;0.10;0.10;;;;;;;;;;5011822;28;20052;-84
2024/04/08 00:43:28;;;;;;;0.10;0.10;;;;;;;;;;4995600;28;20042;-84
2024/04/08 00:45:54;;;;;;;0.10;0.10;;;;;;;;;;4995851;28;20045;-84
2024/04/08 00:48:20;;;;;;;0.30;0.30;;;;;;;;;;5011886;28;20092;-83
2024/04/08 00:50:46;;;;;;;0.10;0.10;;;;;;;;;;4995529;28;20089;-83
2024/04/08 00:53:13;;;;;;;0.10;0.10;;;;;;;;;;4995687;28;20038;-84
2024/04/08 00:55:39;;;;;;;0.10;0.10;;;;;;;;;;5011655;28;20041;-84
2024/04/08 00:58:05;;;;;;;0.10;0.10;;;;;;;;;;5011733;28;20421;-85
2024/04/08 01:00:31;;;;;;;0.10;0.10;;;;;;;;;;4995390;28;20041;-85
2024/04/08 01:02:58;;;;;;;0.10;0.10;;;;;;;;;;4995837;28;20065;-85
2024/04/08 01:05:27;;;;;;;0.10;0.10;;;;;;;;;;4979746;28;20037;-84
2024/04/08 01:07:53;;;;;;;0.10;0.10;;;;;;;;;;5011661;28;20477;-84
2024/04/08 01:10:19;;;;;;;0.10;0.10;;;;;;;;;;4995325;28;20776;-84
2024/04/08 01:12:45;;;;;;;0.10;0.10;;;;;;;;;;4995304;28;20081;-85
2024/04/08 01:15:11;;;;;;;0.10;0.10;;;;;;;;;;4995111;28;20063;-85
2024/04/08 01:17:37;;;;;;;0.10;0.10;;;;;;;;;;4995167;28;20048;-85
2024/04/08 01:20:04;;;;;;;0.10;0.10;;;;;;;;;;5011257;28;20401;-85
2024/04/08 01:22:32;;;;;;;0.10;0.10;;;;;;;;;;5011203;28;20401;-84
2024/04/08 01:24:58;;;;;;;0.10;0.10;;;;;;;;;;5011629;28;20092;-85
2024/04/08 01:27:24;;;;;;;0.10;0.10;;;;;;;;;;5011543;28;20397;-84
2024/04/08 01:29:50;;;;;;;0.10;0.10;;;;;;;;;;5011466;28;20042;-85
2024/04/08 01:32:16;;;;;;;0.10;0.10;;;;;;;;;;4994821;28;20497;-85
2024/04/08 01:34:42;;;;;;;0.10;0.10;;;;;;;;;;4994661;28;20038;-85
2024/04/08 01:37:08;;;;;;;0.10;0.10;;;;;;;;;;4978667;28;20048;-84
2024/04/08 01:39:34;;;;;;;0.10;0.10;;;;;;;;;;4994894;28;20116;-84
2024/04/08 01:42:00;;;;;;;0.10;0.10;;;;;;;;;;4994803;28;20046;-84
2024/04/08 01:44:26;;;;;;;0.10;0.10;;;;;;;;;;5011178;28;20042;-84
2024/04/08 01:46:52;;;;;;;0.10;0.10;;;;;;;;;;5011023;28;20083;-84
2024/04/08 01:49:18;;;;;;;0.10;0.10;;;;;;;;;;4994581;28;20093;-84
2024/04/08 01:51:44;;;;;;;0.10;0.10;;;;;;;;;;5010870;28;20077;-84
2024/04/08 01:54:12;;;;;;;0.10;0.10;;;;;;;;;;5010921;28;20186;-84
2024/04/08 01:56:41;;;;;;;0.10;0.10;;;;;;;;;;5010867;28;20120;-84
2024/04/08 01:59:07;;;;;;;0.10;0.10;;;;;;;;;;5010963;28;20510;-84
2024/04/08 02:01:33;;;;;;;0.10;0.10;;;;;;;;;;5010806;28;20041;-85
2024/04/08 02:03:59;;;;;;;0.10;0.10;;;;;;;;;;5011330;28;20050;-85
2024/04/08 02:06:25;;;;;;;0.10;0.10;;;;;;;;;;5010828;28;20050;-85
2024/04/08 02:08:51;;;;;;;0.10;0.10;;;;;;;;;;4994794;28;20091;-85
2024/04/08 02:11:17;;;;;;;0.10;0.10;;;;;;;;;;5010728;28;20129;-84
2024/04/08 02:13:44;;;;;;;0.10;0.10;;;;;;;;;;5010773;28;20048;-85
2024/04/08 02:16:10;;;;;;;0.10;0.10;;;;;;;;;;4994497;28;20473;-84
2024/04/08 02:18:36;;;;;;;0.10;0.10;;;;;;;;;;5011072;28;20061;-85
2024/04/08 02:21:02;;;;;;;0.10;0.10;;;;;;;;;;5011888;28;20444;-84
2024/04/08 02:23:28;;;;;;;0.10;0.10;;;;;;;;;;4979806;28;20460;-85
2024/04/08 02:25:54;;;;;;;0.10;0.10;;;;;;;;;;5011780;28;20042;-84
2024/04/08 02:28:20;;;;;;;0.10;0.10;;;;;;;;;;4995027;28;20520;-84
2024/04/08 02:30:46;;;;;;;0.10;0.10;;;;;;;;;;5011351;28;20089;-84
2024/04/08 02:33:12;;;;;;;0.10;0.10;;;;;;;;;;4995171;28;20072;-84
2024/04/08 02:35:38;;;;;;;0.10;0.10;;;;;;;;;;5011313;28;20421;-84
2024/04/08 02:38:05;;;;;;;0.10;0.10;;;;;;;;;;5011593;28;20081;-84
2024/04/08 02:40:34;;;;;;;0.10;0.10;;;;;;;;;;4994970;28;20048;-84
2024/04/08 02:43:01;;;;;;;0.10;0.10;;;;;;;;;;4995208;28;20045;-84
2024/04/08 02:45:27;;;;;;;0.10;0.10;;;;;;;;;;4995212;28;20037;-84
2024/04/08 02:47:53;;;;;;;0.40;0.40;;;;;;;;;;4994815;28;20049;-84
2024/04/08 02:50:19;;;;;;;0.10;0.10;;;;;;;;;;5012711;28;20228;-84
2024/04/08 02:52:45;;;;;;;0.10;0.10;;;;;;;;;;5014237;28;20132;-84
2024/04/08 02:56:36;;;;;;;0.20;0.20;;;;;;;;;;5471531;26;20668;-84
2024/04/08 02:59:04;;;;;;;0.10;0.10;;;;;;;;;;5471191;26;20009;-84
2024/04/08 03:01:32;;;;;;;0.10;0.10;;;;;;;;;;5469507;26;20014;-84
2024/04/08 03:03:59;;;;;;;0.10;0.10;;;;;;;;;;5470890;26;20362;-84
2024/04/08 03:06:28;;;;;;;0.10;0.10;;;;;;;;;;5439462;26;20015;-84
2024/04/08 03:08:55;;;;;;;0.10;0.10;;;;;;;;;;5469249;26;20403;-83
2024/04/08 03:11:23;;;;;;;0.10;0.10;;;;;;;;;;5470706;26;20013;-84
2024/04/08 03:13:51;;;;;;;0.10;0.10;;;;;;;;;;5470861;26;20450;-84
2024/04/08 03:16:18;;;;;;;0.10;0.10;;;;;;;;;;5470552;26;20364;-84
2024/04/08 03:18:45;;;;;;;0.10;0.10;;;;;;;;;;5469267;26;19995;-84
2024/04/08 03:21:12;;;;;;;0.10;0.10;;;;;;;;;;5468383;26;20015;-84
2024/04/08 03:23:39;;;;;;;0.10;0.10;;;;;;;;;;5470572;26;20010;-84
2024/04/08 03:26:08;;;;;;;0.10;0.10;;;;;;;;;;5470575;26;19998;-84
2024/04/08 03:28:35;;;;;;;0.10;0.10;;;;;;;;;;5469044;26;20035;-84
2024/04/08 03:31:03;;;;;;;0.15;0.15;;;;;;;;;;5468809;26;20027;-84
2024/04/08 03:33:30;;;;;;;0.10;0.10;;;;;;;;;;5468684;26;20019;-84
2024/04/08 03:35:57;;;;;;;0.10;0.10;;;;;;;;;;5470471;26;20067;-85
2024/04/08 03:38:24;;;;;;;0.10;0.10;;;;;;;;;;5468702;26;20027;-84
2024/04/08 03:41:01;;;;;;;0.10;0.10;;;;;;;;;;5470385;26;19999;-84
2024/04/08 03:43:28;;;;;;;0.20;0.20;;;;;;;;;;5470401;26;19994;-84
2024/04/08 03:45:57;;;;;;;0.10;0.10;;;;;;;;;;5470355;26;20003;-84
2024/04/08 03:48:24;;;;;;;0.35;0.35;;;;;;;;;;5468654;26;20014;-84
2024/04/08 03:50:51;;;;;;;0.10;0.10;;;;;;;;;;5470637;26;20356;-85
2024/04/08 03:53:18;;;;;;;0.10;0.10;;;;;;;;;;5468517;26;20014;-84
2024/04/08 03:55:46;;;;;;;0.10;0.10;;;;;;;;;;5467642;26;20358;-85
2024/04/08 03:58:13;;;;;;;0.10;0.10;;;;;;;;;;5470207;26;19995;-84
2024/04/08 04:00:41;;;;;;;0.10;0.10;;;;;;;;;;5468292;26;20022;-84
2024/04/08 04:03:08;;;;;;;0.10;0.10;;;;;;;;;;5468229;26;20027;-84
2024/04/08 04:05:35;;;;;;;0.10;0.10;;;;;;;;;;5469104;26;20365;-84
2024/04/08 04:08:03;;;;;;;0.15;0.15;;;;;;;;;;5454162;26;20391;-84
2024/04/08 04:10:30;;;;;;;0.10;0.10;;;;;;;;;;5454518;26;20010;-84
2024/04/08 04:12:57;;;;;;;0.10;0.10;;;;;;;;;;5452758;26;20032;-85
2024/04/08 04:15:24;;;;;;;0.10;0.10;;;;;;;;;;5454283;26;20027;-85
2024/04/08 04:17:51;;;;;;;0.10;0.10;;;;;;;;;;5452645;26;19999;-85
2024/04/08 04:20:19;;;;;;;0.10;0.10;;;;;;;;;;5452858;26;20019;-85
2024/04/08 04:22:46;;;;;;;0.10;0.10;;;;;;;;;;5454480;26;20005;-93
2024/04/08 04:25:14;;;;;;;0.10;0.10;;;;;;;;;;5454556;26;20006;-85
2024/04/08 04:27:41;;;;;;;0.10;0.10;;;;;;;;;;5454098;26;20429;-85
2024/04/08 04:30:08;;;;;;;0.10;0.10;;;;;;;;;;5454074;26;20358;-84
2024/04/08 04:32:36;;;;;;;0.10;0.10;;;;;;;;;;5454399;26;19995;-84
2024/04/08 04:35:03;;;;;;;0.10;0.10;;;;;;;;;;5452482;26;20015;-84
2024/04/08 04:37:31;;;;;;;0.10;0.10;;;;;;;;;;5454182;26;20002;-84
2024/04/08 04:39:58;;;;;;;0.10;0.10;;;;;;;;;;5453792;26;20446;-83
2024/04/08 04:42:25;;;;;;;0.10;0.10;;;;;;;;;;5453610;26;19994;-83
2024/04/08 04:44:52;;;;;;;0.10;0.10;;;;;;;;;;5453710;26;20082;-84
2024/04/08 04:47:19;;;;;;;0.10;0.10;;;;;;;;;;5452303;26;20015;-84
2024/04/08 04:49:47;;;;;;;0.10;0.10;;;;;;;;;;5454050;26;20005;-84
2024/04/08 04:52:14;;;;;;;0.10;0.10;;;;;;;;;;5453610;26;20014;-84
2024/04/08 04:54:41;;;;;;;0.10;0.10;;;;;;;;;;5453515;26;19998;-83
2024/04/08 04:57:08;;;;;;;0.10;0.10;;;;;;;;;;5452221;26;20024;-84
2024/04/08 04:59:35;;;;;;;0.10;0.10;;;;;;;;;;5453991;26;19999;-84
2024/04/08 05:02:04;;;;;;;0.10;0.10;;;;;;;;;;5453338;26;20002;-84
2024/04/08 05:04:31;;;;;;;0.10;0.10;;;;;;;;;;5452440;26;19991;-84
2024/04/08 05:06:58;;;;;;;0.10;0.10;;;;;;;;;;5451416;26;20022;-84
2024/04/08 05:09:26;;;;;;;0.10;0.10;;;;;;;;;;5422424;26;20026;-84
2024/04/08 05:11:53;;;;;;;0.10;0.10;;;;;;;;;;5451879;26;20068;-84
2024/04/08 05:14:21;;;;;;;0.10;0.10;;;;;;;;;;5451631;26;20019;-84
2024/04/08 05:16:51;;;;;;;0.10;0.10;;;;;;;;;;5453595;26;20034;-83
2024/04/08 05:19:18;;;;;;;0.10;0.10;;;;;;;;;;5453238;26;20451;-83
2024/04/08 05:21:45;;;;;;;0.10;0.10;;;;;;;;;;5453524;26;19995;-83
2024/04/08 05:24:12;;;;;;;0.20;0.20;;;;;;;;;;5452084;26;20049;-84
2024/04/08 05:26:40;;;;;;;0.13;0.13;;;;;;;;;;5453776;26;20009;-84
2024/04/08 05:29:07;;;;;;;0.20;0.20;;;;;;;;;;5453500;26;20002;-83
2024/04/08 05:31:34;;;;;;;0.10;0.10;;;;;;;;;;5451475;26;20014;-84
2024/04/08 05:34:01;;;;;;;0.10;0.10;;;;;;;;;;5453443;26;20335;-84
2024/04/08 05:36:29;;;;;;;0.10;0.10;;;;;;;;;;5451356;26;20019;-85
2024/04/08 05:38:56;;;;;;;0.10;0.10;;;;;;;;;;5453115;26;20003;-85
2024/04/08 05:41:26;;;;;;;0.10;0.10;;;;;;;;;;5453384;26;20014;-86
2024/04/08 05:43:53;;;;;;;0.10;0.10;;;;;;;;;;5451677;26;20015;-86
2024/04/08 05:46:20;;;;;;;0.10;0.10;;;;;;;;;;5453021;26;20352;-86
2024/04/08 05:48:48;;;;;;;0.20;0.20;;;;;;;;;;5453033;26;20351;-86
2024/04/08 05:51:15;;;;;;;0.10;0.10;;;;;;;;;;5451180;26;20023;-86
2024/04/08 05:53:42;;;;;;;0.10;0.10;;;;;;;;;;5453417;26;19999;-86
2024/04/08 05:56:09;;;;;;;0.10;0.10;;;;;;;;;;5452534;26;20027;-86
2024/04/08 05:58:36;;;;;;;0.10;0.10;;;;;;;;;;5454161;26;20014;-86
2024/04/08 06:01:04;;;;;;;0.10;0.10;;;;;;;;;;5453520;26;20441;-86
2024/04/08 06:03:32;;;;;;;0.10;0.10;;;;;;;;;;5454709;26;20426;-86
2024/04/08 06:05:59;;;;;;;0.10;0.10;;;;;;;;;;5452451;26;20014;-86
2024/04/08 06:08:27;;;;;;;0.10;0.10;;;;;;;;;;5452637;26;20319;-86
2024/04/08 06:10:54;;;;;;;0.10;0.10;;;;;;;;;;5452168;26;20014;-86
2024/04/08 06:13:22;;;;;;;0.10;0.10;;;;;;;;;;5456147;26;20347;-86
2024/04/08 06:15:50;;;;;;;0.10;0.10;;;;;;;;;;5422886;26;19995;-85
2024/04/08 06:18:19;;;;;;;0.10;0.10;;;;;;;;;;5450966;26;20006;-86
2024/04/08 06:20:52;;;;;;;0.10;0.10;;;;;;;;;;5422067;26;20027;-85
2024/04/08 06:23:19;;;;;;;0.10;0.10;;;;;;;;;;5452645;26;19998;-86
2024/04/08 06:25:47;;;;;;;0.10;0.10;;;;;;;;;;5450978;26;20015;-85
2024/04/08 06:28:14;;;;;;;0.10;0.10;;;;;;;;;;5421244;26;20019;-84
2024/04/08 06:30:41;;;;;;;0.10;0.10;;;;;;;;;;5451709;26;20014;-86
2024/04/08 06:33:08;;;;;;;0.10;0.10;;;;;;;;;;5421050;26;20014;-85
2024/04/08 06:35:36;;;;;;;0.10;0.10;;;;;;;;;;5452556;26;19999;-87
2024/04/08 06:38:03;;;;;;;0.10;0.10;;;;;;;;;;5449855;26;20028;-85
2024/04/08 06:40:32;;;;;;;0.10;0.10;;;;;;;;;;5449496;26;20002;-86
2024/04/08 06:42:59;;;;;;;0.10;0.10;;;;;;;;;;5452050;26;20013;-86
2024/04/08 06:45:26;;;;;;;0.10;0.10;;;;;;;;;;5451716;26;20438;-85
2024/04/08 06:47:53;;;;;;;0.10;0.10;;;;;;;;;;5450465;26;20002;-86
2024/04/08 06:50:20;;;;;;;0.10;0.10;;;;;;;;;;5451926;26;20014;-85
2024/04/08 06:52:48;;;;;;;0.10;0.10;;;;;;;;;;5450524;26;20032;-85
2024/04/08 06:55:18;;;;;;;0.10;0.10;;;;;;;;;;5452210;26;19999;-86
2024/04/08 06:57:48;;;;;;;0.10;0.10;;;;;;;;;;5450167;26;20019;-86
2024/04/08 07:00:17;;;;;;;0.10;0.10;;;;;;;;;;5451838;26;20006;-85
2024/04/08 07:02:45;;;;;;;0.10;0.10;;;;;;;;;;5450591;26;20015;-84
2024/04/08 07:05:13;;;;;;;0.10;0.10;;;;;;;;;;5450297;26;20040;-83
2024/04/08 07:07:40;;;;;;;0.10;0.10;;;;;;;;;;5451979;26;19999;-85
2024/04/08 07:10:07;;;;;;;0.10;0.10;;;;;;;;;;5449717;26;20027;-85
2024/04/08 07:12:34;;;;;;;0.10;0.10;;;;;;;;;;5420082;26;20346;-85
2024/04/08 07:15:02;;;;;;;0.10;0.10;;;;;;;;;;5451848;26;20007;-85
2024/04/08 07:17:32;;;;;;;0.10;0.10;;;;;;;;;;5420218;26;20030;-85
2024/04/08 07:19:59;;;;;;;0.10;0.10;;;;;;;;;;5451483;26;20003;-84
2024/04/08 07:22:27;;;;;;;0.10;0.10;;;;;;;;;;5451462;26;20341;-84
2024/04/08 07:24:54;;;;;;;0.10;0.10;;;;;;;;;;5449634;26;20035;-84
2024/04/08 07:27:21;;;;;;;0.10;0.10;;;;;;;;;;5449312;26;20023;-85
2024/04/08 07:29:48;;;;;;;0.10;0.10;;;;;;;;;;5451794;26;20003;-85
2024/04/08 07:32:16;;;;;;;0.10;0.10;;;;;;;;;;5449691;26;20003;-85
2024/04/08 07:34:43;;;;;;;0.10;0.10;;;;;;;;;;5419996;26;20023;-85
2024/04/08 07:37:10;;;;;;;0.20;0.20;;;;;;;;;;5450984;26;20027;-85
2024/04/08 07:39:37;;;;;;;0.10;0.10;;;;;;;;;;5449702;26;20017;-85
2024/04/08 07:42:04;;;;;;;0.10;0.10;;;;;;;;;;5421206;26;20027;-85
2024/04/08 07:44:32;;;;;;;0.10;0.10;;;;;;;;;;5454658;26;20003;-84
2024/04/08 07:46:59;;;;;;;0.10;0.10;;;;;;;;;;5454636;26;20022;-85
2024/04/08 07:49:26;;;;;;;0.10;0.10;;;;;;;;;;5453355;26;20005;-84
2024/04/08 07:51:54;;;;;;;0.10;0.10;;;;;;;;;;5452806;26;20458;-85
2024/04/08 07:54:21;;;;;;;0.10;0.10;;;;;;;;;;5454081;26;20003;-85
2024/04/08 07:56:49;;;;;;;0.10;0.10;;;;;;;;;;5454990;26;20022;-86
2024/04/08 07:59:16;;;;;;;0.10;0.10;;;;;;;;;;5454722;26;20003;-86
2024/04/08 08:01:43;;;;;;;0.20;0.20;;;;;;;;;;5454042;26;20031;-85
2024/04/08 08:04:10;;;;;;;0.10;0.10;;;;;;;;;;5452857;26;20354;-89
2024/04/08 08:06:38;;;;;;;0.10;0.10;;;;;;;;;;5454127;26;19999;-85
2024/04/08 08:09:06;;;;;;;0.10;0.10;;;;;;;;;;5454158;26;20044;-85
2024/04/08 08:11:34;;;;;;;0.10;0.10;;;;;;;;;;5454065;26;20007;-85
2024/04/08 08:14:01;;;;;;;0.13;0.13;;;;;;;;;;5416667;26;20028;-85
2024/04/08 08:16:28;;;;;;;0.10;0.10;;;;;;;;;;5418596;26;20007;-85
2024/04/08 08:18:56;;;;;;;0.10;0.10;;;;;;;;;;5418495;26;20023;-84
2024/04/08 08:21:23;;;;;;;0.10;0.10;;;;;;;;;;5418330;26;20003;-83
2024/04/08 08:23:50;;;;;;;0.10;0.10;;;;;;;;;;5418609;26;19995;-86
2024/04/08 08:26:17;;;;;;;0.10;0.10;;;;;;;;;;5418503;26;20000;-84
2024/04/08 08:28:47;;;;;;;0.10;0.10;;;;;;;;;;5417433;26;20368;-85
2024/04/08 08:31:14;;;;;;;0.10;0.10;;;;;;;;;;5418515;26;20004;-84
2024/04/08 08:33:42;;;;;;;0.70;0.20;;;;;;;;;;5418263;26;20004;-84
2024/04/08 08:36:09;;;;;;;0.10;0.10;;;;;;;;;;5386458;26;20015;-85
2024/04/08 08:38:37;;;;;;;0.10;0.10;;;;;;;;;;5386916;26;20028;-85
2024/04/08 08:41:05;;;;;;;0.10;0.10;;;;;;;;;;5418038;26;20431;-84
2024/04/08 08:43:32;;;;;;;0.20;0.20;;;;;;;;;;5417604;26;20439;-85
2024/04/08 08:46:00;;;;;;;0.17;0.17;;;;;;;;;;5416382;26;20023;-86
2024/04/08 08:48:27;;;;;;;0.10;0.10;;;;;;;;;;5417905;26;20003;-85
2024/04/08 08:50:54;;;;;;;0.17;0.17;;;;;;;;;;5415993;26;20019;-86
2024/04/08 08:53:21;;;;;;;0.10;0.10;;;;;;;;;;5415511;26;20019;-85
2024/04/08 08:55:48;;;;;;;0.10;0.10;;;;;;;;;;5417973;26;20079;-84
2024/04/08 08:58:16;;;;;;;0.10;0.10;;;;;;;;;;5417961;26;20032;-85
2024/04/08 09:00:43;;;;;;;0.10;0.10;;;;;;;;;;5416113;26;20020;-85
2024/04/08 09:03:12;;;;;;;0.10;0.10;;;;;;;;;;5415922;26;20011;-85
2024/04/08 09:05:40;;;;;;;0.15;0.15;;;;;;;;;;5416031;26;20031;-86
2024/04/08 09:08:08;;;;;;;0.10;0.10;;;;;;;;;;5415595;26;20495;-85
2024/04/08 09:10:44;;;;;;;0.10;0.10;;;;;;;;;;5417749;26;20018;-85
2024/04/08 09:13:21;;;;;;;0.10;0.10;;;;;;;;;;5417521;26;20031;-85
2024/04/08 09:15:50;;;;;;;0.10;0.10;;;;;;;;;;5441146;26;20023;-85
2024/04/08 09:18:18;;;;;;;0.10;0.10;;;;;;;;;;5435439;26;20024;-85
2024/04/08 09:20:45;;;;;;;0.20;0.20;;;;;;;;;;5415783;26;20078;-85
2024/04/08 09:23:12;;;;;;;0.10;0.10;;;;;;;;;;5415172;26;20036;-85
2024/04/08 09:25:40;;;;;;;0.10;0.10;;;;;;;;;;5417520;26;19996;-84
2024/04/08 09:28:08;;;;;;;0.10;0.10;;;;;;;;;;5417117;26;20355;-86
2024/04/08 09:30:35;;;;;;;0.10;0.10;;;;;;;;;;5414916;26;20028;-85
2024/04/08 09:33:02;;;;;;;0.10;0.10;;;;;;;;;;5415271;26;20023;-88
2024/04/08 09:35:30;;;;;;;0.10;0.10;;;;;;;;;;5417292;26;19995;-85
2024/04/08 09:37:57;;;;;;;0.10;0.10;;;;;;;;;;5386317;26;20015;-88
2024/04/08 09:40:25;;;;;;;0.10;0.10;;;;;;;;;;5415466;26;20016;-85
2024/04/08 09:42:52;;;;;;;0.10;0.10;;;;;;;;;;5415664;26;20015;-84
2024/04/08 09:45:20;;;;;;;0.10;0.10;;;;;;;;;;5415748;26;20024;-90
2024/04/08 09:47:47;;;;;;;0.10;0.10;;;;;;;;;;5417493;26;20000;-86
2024/04/08 09:50:14;;;;;;;0.10;0.10;;;;;;;;;;5415476;26;20351;-89
2024/04/08 09:52:42;;;;;;;0.10;0.10;;;;;;;;;;5415088;26;20031;-89
2024/04/08 09:55:10;;;;;;;0.10;0.10;;;;;;;;;;5385845;26;19997;-86
2024/04/08 09:57:39;;;;;;;0.10;0.10;;;;;;;;;;5415302;26;20016;-89
2024/04/08 10:00:07;;;;;;;0.10;0.10;;;;;;;;;;5415537;26;19999;-88
2024/04/08 10:02:39;;;;;;;0.10;0.10;;;;;;;;;;5386149;26;20019;-90
2024/04/08 10:05:06;;;;;;;0.10;0.10;;;;;;;;;;5413995;26;20015;-88
2024/04/08 10:07:33;;;;;;;0.10;0.10;;;;;;;;;;5415628;26;20344;-89
2024/04/08 10:10:02;;;;;;;0.10;0.10;;;;;;;;;;5396591;26;20027;-89
2024/04/08 10:12:31;;;;;;;0.10;0.10;;;;;;;;;;5417435;26;19999;-90
2024/04/08 10:15:08;;;;;;;0.10;0.10;;;;;;;;;;5414885;26;20363;-89
2024/04/08 10:17:36;;;;;;;0.10;0.10;;;;;;;;;;5415735;26;20007;-88
2024/04/08 10:20:06;;;;;;;0.10;0.10;;;;;;;;;;5416057;26;20072;-88
2024/04/08 10:22:34;;;;;;;0.10;0.10;;;;;;;;;;5416606;26;20018;-86
2024/04/08 10:25:01;;;;;;;0.15;0.15;;;;;;;;;;5414324;26;20032;-87
2024/04/08 10:27:29;;;;;;;0.20;0.20;;;;;;;;;;5416506;26;20004;-88
2024/04/08 10:29:57;;;;;;;0.10;0.10;;;;;;;;;;5415478;26;20028;-86
2024/04/08 10:32:24;;;;;;;0.20;0.20;;;;;;;;;;5416297;26;20004;-88
2024/04/08 10:34:55;;;;;;;0.17;0.17;;;;;;;;;;5416449;26;20007;-86
2024/04/08 10:37:22;;;;;;;0.10;0.10;;;;;;;;;;5416464;26;20007;-84
2024/04/08 10:39:58;;;;;;;0.10;0.10;;;;;;;;;;5416070;26;20015;-85
2024/04/08 10:42:28;;;;;;;0.10;0.10;;;;;;;;;;5414750;26;20464;-86
2024/04/08 10:44:55;;;;;;;0.10;0.10;;;;;;;;;;5413285;26;20015;-85
2024/04/08 10:47:22;;;;;;;0.20;0.20;;;;;;;;;;5414654;26;20355;-85
2024/04/08 10:49:49;;;;;;;0.20;0.20;;;;;;;;;;5416311;26;19996;-84
2024/04/08 10:52:17;;;;;;;0.13;0.13;;;;;;;;;;5416177;26;20446;-84
2024/04/08 10:54:44;;;;;;;0.25;0.25;;;;;;;;;;5414859;26;20025;-84
2024/04/08 10:57:11;;;;;;;0.10;0.10;;;;;;;;;;5416026;26;19996;-84
2024/04/08 10:59:39;;;;;;;0.10;0.10;;;;;;;;;;5413844;26;20024;-84
2024/04/08 11:02:12;;;;;;;0.20;0.20;;;;;;;;;;5415990;26;19999;-84
2024/04/08 11:04:40;;;;;;;0.10;0.10;;;;;;;;;;5414123;26;20070;-83
2024/04/08 11:07:07;;;;;;;0.10;0.10;;;;;;;;;;5415752;26;20078;-84
2024/04/08 11:09:34;;;;;;;0.10;0.10;;;;;;;;;;5415739;26;19996;-84
2024/04/08 11:12:05;;;;;;;0.10;0.10;;;;;;;;;;5415615;26;19999;-84
2024/04/08 11:14:33;;;;;;;0.17;0.17;;;;;;;;;;5415379;26;19995;-84
2024/04/08 11:17:08;;;;;;;0.10;0.10;;;;;;;;;;5417063;26;19999;-84
2024/04/08 11:19:38;;;;;;;0.10;0.10;;;;;;;;;;5418570;26;20020;-84
2024/04/08 11:22:08;;;;;;;0.10;0.10;;;;;;;;;;5418739;26;19996;-84
2024/04/08 11:24:40;;;;;;;0.20;0.20;;;;;;;;;;5417248;26;20016;-84
2024/04/08 11:27:11;;;;;;;0.10;0.10;;;;;;;;;;5419383;26;20003;-84
2024/04/08 11:29:42;;;;;;;0.10;0.10;;;;;;;;;;5417662;26;20010;-85
2024/04/08 11:32:13;;;;;;;0.10;0.10;;;;;;;;;;5417160;26;20024;-86
2024/04/08 11:34:40;;;;;;;0.10;0.10;;;;;;;;;;5418355;26;20016;-84
2024/04/08 11:37:09;;;;;;;0.10;0.10;;;;;;;;;;5417569;26;20007;-86
2024/04/08 11:39:37;;;;;;;0.20;0.20;;;;;;;;;;5417272;26;20015;-87
2024/04/08 11:42:04;;;;;;;0.15;0.15;;;;;;;;;;5418973;26;20443;-86
2024/04/08 11:44:32;;;;;;;0.10;0.10;;;;;;;;;;5418926;26;20354;-86
2024/04/08 11:46:59;;;;;;;0.10;0.10;;;;;;;;;;5418948;26;20006;-86
2024/04/08 11:49:30;;;;;;;0.10;0.10;;;;;;;;;;5417249;26;20023;-86
2024/04/08 11:51:57;;;;;;;0.10;0.10;;;;;;;;;;5416837;26;20016;-85
2024/04/08 11:54:24;;;;;;;0.10;0.10;;;;;;;;;;5388049;26;20020;-89
2024/04/08 11:56:51;;;;;;;0.10;0.10;;;;;;;;;;5419145;26;19999;-86
2024/04/08 11:59:18;;;;;;;0.10;0.10;;;;;;;;;;5417127;26;20475;-87
2024/04/08 12:01:46;;;;;;;0.10;0.10;;;;;;;;;;5416962;26;20028;-88
2024/04/08 12:04:15;;;;;;;0.10;0.10;;;;;;;;;;5418102;26;19999;-89
2024/04/08 12:06:42;;;;;;;0.10;0.10;;;;;;;;;;5417547;26;20015;-91
2024/04/08 12:09:09;;;;;;;0.10;0.10;;;;;;;;;;5418210;26;20025;-88
2024/04/08 12:11:36;;;;;;;0.10;0.10;;;;;;;;;;5418655;26;20000;-86
2024/04/08 12:14:04;;;;;;;0.10;0.10;;;;;;;;;;5417668;26;20019;-87
2024/04/08 12:16:32;;;;;;;0.20;0.20;;;;;;;;;;5418334;26;20350;-87
2024/04/08 12:19:00;;;;;;;0.10;0.10;;;;;;;;;;5418355;26;20032;-87
2024/04/08 12:21:27;;;;;;;0.47;0.47;;;;;;;;;;5417740;26;20024;-88
2024/04/08 12:23:55;;;;;;;0.10;0.10;;;;;;;;;;5418489;26;20007;-88
2024/04/08 12:26:22;;;;;;;0.10;0.10;;;;;;;;;;5417661;26;20010;-90
2024/04/08 12:28:49;;;;;;;0.10;0.10;;;;;;;;;;5418146;26;20000;-89
2024/04/08 12:31:16;;;;;;;0.10;0.10;;;;;;;;;;5418517;26;20003;-90
2024/04/08 12:33:44;;;;;;;0.20;0.20;;;;;;;;;;5418540;26;20020;-89
2024/04/08 12:36:11;;;;;;;0.10;0.10;;;;;;;;;;5419489;26;19996;-89
2024/04/08 12:38:38;;;;;;;0.10;0.10;;;;;;;;;;5388411;26;20024;-90
2024/04/08 12:41:05;;;;;;;0.35;0.35;;;;;;;;;;5416898;26;20020;-89
2024/04/08 12:43:34;;;;;;;0.20;0.20;;;;;;;;;;5388086;26;20011;-90
2024/04/08 12:46:05;;;;;;;0.10;0.10;;;;;;;;;;5417114;26;20019;-89
2024/04/08 12:48:32;;;;;;;0.10;0.10;;;;;;;;;;5388205;26;20340;-88
2024/04/08 12:50:59;;;;;;;0.10;0.10;;;;;;;;;;5418674;26;19999;-90
2024/04/08 12:53:27;;;;;;;0.10;0.10;;;;;;;;;;5418490;26;20011;-89
2024/04/08 12:55:56;;;;;;;0.20;0.20;;;;;;;;;;5416747;26;20016;-89
2024/04/08 12:58:23;;;;;;;0.10;0.10;;;;;;;;;;5387698;26;20028;-90
2024/04/08 13:00:50;;;;;;;0.13;0.13;;;;;;;;;;5418893;26;20019;-89
2024/04/08 13:03:17;;;;;;;0.17;0.17;;;;;;;;;;5418323;26;20371;-89
2024/04/08 13:05:49;;;;;;;0.10;0.10;;;;;;;;;;5417467;26;20006;-89
2024/04/08 13:08:16;;;;;;;0.20;0.20;;;;;;;;;;5388522;26;20348;-88
2024/04/08 13:10:43;;;;;;;0.10;0.10;;;;;;;;;;5416713;26;20019;-87
2024/04/08 13:13:11;;;;;;;0.10;0.10;;;;;;;;;;5416249;26;20015;-87
2024/04/08 13:15:39;;;;;;;0.10;0.10;;;;;;;;;;5387786;26;20028;-90
2024/04/08 13:18:06;;;;;;;0.10;0.10;;;;;;;;;;5417953;26;19995;-88
2024/04/08 13:20:33;;;;;;;0.10;0.10;;;;;;;;;;5418009;26;20028;-88
2024/04/08 13:23:01;;;;;;;0.20;0.20;;;;;;;;;;5417992;26;20010;-88
2024/04/08 13:25:28;;;;;;;0.15;0.15;;;;;;;;;;5416510;26;20110;-88
2024/04/08 13:27:56;;;;;;;0.13;0.13;;;;;;;;;;5416893;26;20015;-87
2024/04/08 13:30:23;;;;;;;0.20;0.20;;;;;;;;;;5415609;26;20019;-88
2024/04/08 13:32:50;;;;;;;0.10;0.10;;;;;;;;;;5386775;26;20027;-89
2024/04/08 13:35:17;;;;;;;0.10;0.10;;;;;;;;;;5417576;26;20007;-88
2024/04/08 13:37:45;;;;;;;0.10;0.10;;;;;;;;;;5417571;26;19999;-86
2024/04/08 13:40:12;;;;;;;0.10;0.10;;;;;;;;;;5414974;26;20364;-87
2024/04/08 13:42:39;;;;;;;0.10;0.10;;;;;;;;;;5417452;26;20000;-87
2024/04/08 13:45:06;;;;;;;0.10;0.10;;;;;;;;;;5416971;26;20006;-88
2024/04/08 13:47:34;;;;;;;0.15;0.15;;;;;;;;;;5386650;26;20006;-88
2024/04/08 13:50:01;;;;;;;0.10;0.10;;;;;;;;;;5415067;26;20019;-89
2024/04/08 13:52:28;;;;;;;0.10;0.10;;;;;;;;;;5415708;26;20019;-89
2024/04/08 13:54:55;;;;;;;0.10;0.10;;;;;;;;;;5415505;26;20024;-89
2024/04/08 13:57:23;;;;;;;0.10;0.10;;;;;;;;;;5387099;26;20019;-90
2024/04/08 13:59:50;;;;;;;0.15;0.15;;;;;;;;;;5415403;26;20360;-89
2024/04/08 14:02:17;;;;;;;0.20;0.20;;;;;;;;;;5414807;26;20020;-90
2024/04/08 14:04:44;;;;;;;0.10;0.10;;;;;;;;;;5415244;26;20460;-91
2024/04/08 14:07:12;;;;;;;0.10;0.10;;;;;;;;;;5386537;26;20012;-89
2024/04/08 14:09:39;;;;;;;0.10;0.10;;;;;;;;;;5418250;26;19995;-90
2024/04/08 14:12:06;;;;;;;0.10;0.10;;;;;;;;;;5415444;26;20344;-89
2024/04/08 14:14:34;;;;;;;0.10;0.10;;;;;;;;;;5415331;26;20026;-89
2024/04/08 14:17:03;;;;;;;0.10;0.10;;;;;;;;;;5416859;26;20014;-90
2024/04/08 14:19:30;;;;;;;0.10;0.10;;;;;;;;;;5414986;26;20024;-89
2024/04/08 14:21:58;;;;;;;0.10;0.10;;;;;;;;;;5415118;26;20020;-89
2024/04/08 14:24:25;;;;;;;0.15;0.15;;;;;;;;;;5417038;26;20010;-89
2024/04/08 14:26:52;;;;;;;0.10;0.10;;;;;;;;;;5385986;26;20411;-89
2024/04/08 14:29:19;;;;;;;0.10;0.10;;;;;;;;;;5417020;26;20000;-88
2024/04/08 14:31:46;;;;;;;0.10;0.10;;;;;;;;;;5416536;26;20014;-89
2024/04/08 14:34:14;;;;;;;0.10;0.10;;;;;;;;;;5416444;26;20024;-90
2024/04/08 14:36:42;;;;;;;0.10;0.10;;;;;;;;;;5417569;26;20000;-89
2024/04/08 14:39:12;;;;;;;0.10;0.10;;;;;;;;;;5417144;26;20010;-92
2024/04/08 14:41:39;;;;;;;0.10;0.10;;;;;;;;;;5416325;26;20354;-87
2024/04/08 14:44:06;;;;;;;0.10;0.10;;;;;;;;;;5414821;26;20028;-88
2024/04/08 14:46:33;;;;;;;0.10;0.10;;;;;;;;;;5416562;26;20432;-88